createdAt,value
2018-07-31T00:03:10.603Z,17.80
2018-07-31T00:05:39.110Z,17.80
2018-07-31T00:08:07.584Z,17.70
2018-07-31T00:10:36.098Z,17.80
2018-07-31T00:13:04.592Z,17.80
2018-07-31T00:15:33.079Z,17.70
2018-07-31T00:18:01.530Z,17.80
2018-07-31T00:20:30.016Z,17.80
2018-07-31T00:22:58.504Z,17.90
2018-07-31T00:25:27.003Z,17.90
2018-07-31T00:27:55.500Z,17.80
2018-07-31T00:30:24.004Z,17.70
2018-07-31T00:32:52.491Z,17.70
2018-07-31T00:35:20.987Z,17.70
2018-07-31T00:37:49.791Z,17.70
2018-07-31T00:40:18.255Z,17.80
2018-07-31T00:42:47.669Z,17.80
2018-07-31T00:45:16.154Z,17.70
2018-07-31T00:47:44.631Z,17.60
2018-07-31T00:50:13.139Z,17.60
2018-07-31T00:52:41.595Z,17.70
2018-07-31T00:55:10.063Z,17.60
2018-07-31T00:57:38.557Z,17.50
2018-07-31T01:00:07.068Z,17.40
2018-07-31T01:02:35.526Z,17.40
2018-07-31T01:05:04.144Z,17.30
2018-07-31T01:07:32.617Z,17.20
2018-07-31T01:10:01.099Z,17.30
2018-07-31T01:12:29.575Z,17.30
2018-07-31T01:14:58.172Z,17.10
2018-07-31T01:17:27.060Z,17.10
2018-07-31T01:19:55.968Z,17.00
2018-07-31T01:22:24.852Z,17.10
2018-07-31T01:24:53.808Z,17.10
2018-07-31T01:27:23.569Z,17.00
2018-07-31T01:29:52.686Z,17.00
2018-07-31T01:32:21.601Z,16.80
2018-07-31T01:34:51.462Z,16.80
2018-07-31T01:37:20.997Z,16.80
2018-07-31T01:39:51.673Z,16.70
2018-07-31T01:42:21.090Z,16.70
2018-07-31T01:44:50.680Z,16.60
2018-07-31T01:47:20.044Z,16.60
2018-07-31T01:49:49.428Z,16.60
2018-07-31T01:52:18.651Z,16.70
2018-07-31T01:54:47.600Z,16.70
2018-07-31T01:57:16.208Z,16.70
2018-07-31T02:02:12.997Z,16.70
2018-07-31T02:04:41.497Z,16.60
2018-07-31T02:07:10.230Z,16.60
2018-07-31T02:09:38.945Z,16.50
2018-07-31T02:12:09.505Z,16.50
2018-07-31T02:14:38.224Z,16.60
2018-07-31T02:17:06.915Z,16.50
2018-07-31T02:19:35.391Z,16.50
2018-07-31T02:22:03.907Z,16.60
2018-07-31T02:24:32.435Z,16.50
2018-07-31T02:27:00.931Z,16.50
2018-07-31T02:29:34.638Z,16.60
2018-07-31T02:32:03.168Z,16.60
2018-07-31T02:34:31.791Z,16.50
2018-07-31T02:37:00.267Z,16.50
2018-07-31T02:39:28.742Z,16.50
2018-07-31T02:41:57.225Z,16.40
2018-07-31T02:44:25.723Z,16.50
2018-07-31T02:46:54.289Z,16.40
2018-07-31T02:49:22.764Z,16.30
2018-07-31T02:51:51.295Z,16.30
2018-07-31T02:54:19.788Z,16.20
2018-07-31T02:56:48.295Z,16.30
2018-07-31T02:59:16.766Z,16.30
2018-07-31T03:01:45.243Z,16.20
2018-07-31T03:04:13.720Z,16.30
2018-07-31T03:06:42.260Z,16.20
2018-07-31T03:09:10.841Z,16.10
2018-07-31T03:11:39.337Z,16.10
2018-07-31T03:14:07.859Z,16.00
2018-07-31T03:16:36.384Z,16.10
2018-07-31T03:19:04.936Z,16.10
2018-07-31T03:21:33.442Z,16.10
2018-07-31T03:24:01.936Z,16.00
2018-07-31T03:26:30.455Z,16.00
2018-07-31T03:28:58.939Z,16.00
2018-07-31T03:31:27.423Z,16.00
2018-07-31T03:33:55.922Z,16.10
2018-07-31T03:36:24.435Z,16.10
2018-07-31T03:38:52.903Z,16.10
2018-07-31T03:41:21.447Z,16.00
2018-07-31T03:43:49.951Z,15.90
2018-07-31T03:46:18.412Z,15.80
2018-07-31T03:48:46.897Z,15.90
2018-07-31T03:51:15.405Z,15.90
2018-07-31T03:53:43.919Z,15.90
2018-07-31T03:56:12.413Z,15.90
2018-07-31T03:58:40.928Z,15.90
2018-07-31T04:01:09.396Z,15.80
2018-07-31T04:03:37.888Z,15.80
2018-07-31T04:06:06.512Z,15.90
2018-07-31T04:08:35.011Z,15.80
2018-07-31T04:11:03.499Z,15.70
2018-07-31T04:13:31.992Z,15.70
2018-07-31T04:16:00.473Z,15.80
2018-07-31T04:18:28.959Z,15.90
2018-07-31T04:20:57.512Z,15.80
2018-07-31T04:23:27.532Z,15.70
2018-07-31T04:25:57.217Z,15.70
2018-07-31T04:28:27.689Z,15.70
2018-07-31T04:30:56.195Z,15.70
2018-07-31T04:33:24.730Z,15.90
2018-07-31T04:35:53.268Z,16.00
2018-07-31T04:38:21.799Z,16.00
2018-07-31T04:40:50.310Z,16.20
2018-07-31T04:43:19.187Z,16.20
2018-07-31T04:45:47.676Z,16.40
2018-07-31T04:48:16.143Z,16.50
2018-07-31T04:50:44.603Z,16.60
2018-07-31T04:53:13.092Z,16.70
2018-07-31T04:55:50.399Z,16.90
2018-07-31T04:58:18.887Z,16.90
2018-07-31T05:00:47.374Z,17.10
2018-07-31T05:03:15.880Z,17.10
2018-07-31T05:05:44.389Z,17.20
2018-07-31T05:08:12.872Z,17.30
2018-07-31T05:10:41.459Z,17.50
2018-07-31T05:13:10.080Z,17.60
2018-07-31T05:15:40.148Z,17.70
2018-07-31T05:18:09.311Z,18.00
2018-07-31T05:20:38.283Z,18.60
2018-07-31T05:23:07.210Z,19.10
2018-07-31T05:25:36.171Z,19.40
2018-07-31T05:28:05.229Z,20.10
2018-07-31T05:30:34.125Z,21.40
2018-07-31T05:33:03.391Z,22.50
2018-07-31T05:35:32.464Z,23.50
2018-07-31T05:38:01.567Z,23.90
2018-07-31T05:40:30.465Z,24.40
2018-07-31T05:43:00.079Z,24.80
2018-07-31T05:45:29.411Z,25.10
2018-07-31T05:47:58.559Z,25.60
2018-07-31T05:52:56.099Z,26.30
2018-07-31T05:55:25.161Z,25.90
2018-07-31T05:58:00.081Z,26.20
2018-07-31T06:00:28.937Z,26.70
2018-07-31T06:02:57.899Z,27.40
2018-07-31T06:05:26.759Z,27.50
2018-07-31T06:07:56.447Z,27.50
2018-07-31T06:10:25.528Z,28.00
2018-07-31T06:12:54.599Z,28.60
2018-07-31T06:15:23.563Z,28.60
2018-07-31T06:17:52.508Z,28.60
2018-07-31T06:20:21.544Z,28.50
2018-07-31T06:22:50.599Z,28.80
2018-07-31T06:25:19.606Z,29.00
2018-07-31T06:27:48.471Z,28.90
2018-07-31T06:30:18.064Z,29.50
2018-07-31T06:32:46.992Z,29.80
2018-07-31T06:35:15.847Z,29.50
2018-07-31T06:37:44.332Z,30.10
2018-07-31T06:42:41.003Z,30.30
2018-07-31T06:45:09.542Z,30.80
2018-07-31T06:47:38.027Z,31.10
2018-07-31T06:50:06.680Z,31.10
2018-07-31T06:52:35.177Z,32.10
2018-07-31T06:55:03.741Z,32.20
2018-07-31T06:57:32.212Z,33.10
2018-07-31T07:00:00.688Z,33.50
2018-07-31T07:02:30.398Z,33.50
2018-07-31T07:04:59.610Z,32.90
2018-07-31T07:07:28.745Z,33.20
2018-07-31T07:09:59.297Z,33.10
2018-07-31T07:12:28.672Z,33.40
2018-07-31T07:14:57.177Z,32.70
2018-07-31T07:19:53.790Z,31.70
2018-07-31T07:22:22.296Z,31.50
2018-07-31T07:24:50.888Z,31.30
2018-07-31T07:27:19.382Z,31.20
2018-07-31T07:29:47.855Z,30.90
2018-07-31T07:32:16.332Z,30.60
2018-07-31T07:37:12.970Z,29.70
2018-07-31T07:39:41.441Z,29.30
2018-07-31T07:42:10.809Z,29.00
2018-07-31T07:44:39.284Z,28.90
2018-07-31T07:47:07.779Z,28.90
2018-07-31T07:49:36.310Z,29.20
2018-07-31T07:52:04.987Z,29.10
2018-07-31T07:54:33.503Z,30.20
2018-07-31T07:57:01.989Z,31.50
2018-07-31T07:59:30.459Z,32.50
2018-07-31T08:01:58.931Z,33.40
2018-07-31T08:04:27.441Z,35.10
2018-07-31T08:06:55.984Z,35.30
2018-07-31T08:09:24.502Z,34.00
2018-07-31T08:11:52.961Z,34.00
2018-07-31T08:14:23.447Z,34.30
2018-07-31T08:16:51.904Z,34.90
2018-07-31T08:19:20.423Z,34.30
2018-07-31T08:21:48.914Z,35.30
2018-07-31T08:24:17.397Z,36.00
2018-07-31T08:26:45.871Z,36.70
2018-07-31T08:29:14.355Z,37.50
2018-07-31T08:31:42.842Z,36.60
2018-07-31T08:34:11.478Z,36.00
2018-07-31T08:36:40.007Z,36.30
2018-07-31T08:39:09.428Z,36.00
2018-07-31T08:41:37.919Z,36.50
2018-07-31T08:44:06.872Z,36.80
2018-07-31T08:46:35.360Z,37.10
2018-07-31T08:49:03.895Z,35.20
2018-07-31T08:51:32.371Z,35.80
2018-07-31T08:54:00.850Z,35.70
2018-07-31T08:56:29.367Z,36.50
2018-07-31T08:58:58.857Z,36.40
2018-07-31T09:01:27.356Z,36.60
2018-07-31T09:03:56.705Z,37.40
2018-07-31T09:06:25.255Z,37.30
2018-07-31T09:08:53.750Z,37.60
2018-07-31T09:11:22.204Z,37.70
2018-07-31T09:13:50.656Z,37.30
2018-07-31T09:16:19.225Z,38.10
2018-07-31T09:18:47.811Z,38.20
2018-07-31T09:21:16.387Z,38.10
2018-07-31T09:23:44.820Z,38.50
2018-07-31T09:26:14.467Z,38.50
2018-07-31T09:28:42.933Z,38.20
2018-07-31T09:31:12.304Z,38.80
2018-07-31T09:33:40.950Z,38.50
2018-07-31T09:36:09.397Z,39.60
2018-07-31T09:38:37.867Z,39.40
2018-07-31T09:41:06.400Z,39.00
2018-07-31T09:43:34.867Z,39.60
2018-07-31T09:46:03.431Z,39.70
2018-07-31T09:48:31.937Z,39.70
2018-07-31T09:51:00.339Z,39.30
2018-07-31T09:53:28.799Z,39.70
2018-07-31T09:55:57.272Z,40.00
2018-07-31T09:58:25.864Z,39.90
2018-07-31T10:01:00.031Z,39.90
2018-07-31T10:03:28.499Z,39.60
2018-07-31T10:05:57.021Z,38.70
2018-07-31T10:08:25.507Z,37.50
2018-07-31T10:10:55.122Z,39.00
2018-07-31T10:15:51.712Z,39.70
2018-07-31T10:18:20.238Z,39.40
2018-07-31T10:20:48.627Z,38.60
2018-07-31T10:23:17.076Z,39.10
2018-07-31T10:25:45.519Z,39.00
2018-07-31T10:28:13.957Z,38.80
2018-07-31T10:30:42.507Z,38.70
2018-07-31T10:33:10.901Z,38.70
2018-07-31T10:35:39.356Z,39.10
2018-07-31T10:38:07.816Z,39.00
2018-07-31T10:40:36.256Z,37.80
2018-07-31T10:43:04.721Z,37.10
2018-07-31T10:45:33.180Z,37.20
2018-07-31T10:48:01.648Z,36.60
2018-07-31T10:50:30.100Z,37.00
2018-07-31T10:52:58.571Z,36.80
2018-07-31T10:57:55.169Z,35.10
2018-07-31T11:00:23.724Z,35.10
2018-07-31T11:02:52.211Z,35.70
2018-07-31T11:05:20.624Z,36.20
2018-07-31T11:07:49.111Z,36.90
2018-07-31T11:10:17.624Z,37.00
2018-07-31T11:12:46.127Z,37.10
2018-07-31T11:15:14.591Z,38.00
2018-07-31T11:17:43.092Z,38.50
2018-07-31T11:20:11.559Z,37.90
2018-07-31T11:22:40.060Z,37.60
2018-07-31T11:25:08.600Z,37.70
2018-07-31T11:27:37.114Z,38.30
2018-07-31T11:30:06.204Z,38.60
2018-07-31T11:32:34.714Z,38.20
2018-07-31T11:35:03.228Z,37.60
2018-07-31T11:37:31.717Z,35.80
2018-07-31T11:40:00.278Z,34.80
2018-07-31T11:42:28.799Z,34.00
2018-07-31T11:44:57.288Z,34.00
2018-07-31T11:47:25.808Z,35.00
2018-07-31T11:49:54.423Z,35.90
2018-07-31T11:52:22.799Z,35.50
2018-07-31T11:54:51.272Z,35.20
2018-07-31T11:57:19.738Z,36.00
2018-07-31T11:59:48.262Z,36.40
2018-07-31T12:02:16.790Z,36.70
2018-07-31T12:04:45.286Z,35.90
2018-07-31T12:07:13.798Z,35.00
2018-07-31T12:09:42.287Z,35.10
2018-07-31T12:12:10.811Z,35.70
2018-07-31T12:14:39.276Z,35.60
2018-07-31T12:17:07.813Z,36.10
2018-07-31T12:19:36.300Z,36.40
2018-07-31T12:22:04.870Z,36.40
2018-07-31T12:24:33.336Z,35.60
2018-07-31T12:27:01.909Z,35.20
2018-07-31T12:29:30.359Z,34.80
2018-07-31T12:31:58.858Z,35.30
2018-07-31T12:34:27.358Z,35.50
2018-07-31T12:36:55.879Z,35.60
2018-07-31T12:39:24.353Z,35.80
2018-07-31T12:41:52.849Z,35.60
2018-07-31T12:44:21.312Z,36.20
2018-07-31T12:46:49.782Z,36.30
2018-07-31T12:49:18.276Z,35.60
2018-07-31T12:51:46.746Z,35.70
2018-07-31T12:56:43.362Z,34.90
2018-07-31T12:59:11.834Z,35.00
2018-07-31T13:01:40.330Z,34.60
2018-07-31T13:04:08.923Z,34.30
2018-07-31T13:06:37.508Z,34.30
2018-07-31T13:09:07.368Z,34.30
2018-07-31T13:11:36.064Z,33.80
2018-07-31T13:14:04.588Z,33.60
2018-07-31T13:16:33.064Z,33.40
2018-07-31T13:19:01.641Z,33.40
2018-07-31T13:21:30.134Z,33.30
2018-07-31T13:23:58.608Z,33.80
2018-07-31T13:26:27.142Z,34.40
2018-07-31T13:28:55.675Z,33.90
2018-07-31T13:36:20.552Z,33.70
2018-07-31T13:38:49.012Z,33.50
2018-07-31T13:41:17.491Z,34.00
2018-07-31T13:43:46.043Z,34.70
2018-07-31T13:46:14.506Z,34.60
2018-07-31T13:48:43.015Z,34.60
2018-07-31T13:51:11.499Z,34.80
2018-07-31T13:56:08.158Z,35.40
2018-07-31T13:58:36.648Z,35.60
2018-07-31T14:01:05.128Z,35.50
2018-07-31T14:03:33.594Z,35.60
2018-07-31T14:06:02.104Z,35.20
2018-07-31T14:08:30.599Z,35.10
2018-07-31T14:10:59.076Z,35.10
2018-07-31T14:13:27.567Z,34.90
2018-07-31T14:15:56.043Z,34.00
2018-07-31T14:18:24.570Z,33.30
2018-07-31T14:20:53.000Z,32.80
2018-07-31T14:23:21.551Z,32.60
2018-07-31T14:25:50.035Z,32.50
2018-07-31T14:28:18.647Z,32.20
2018-07-31T14:30:47.194Z,32.10
2018-07-31T14:33:15.678Z,32.50
2018-07-31T14:35:44.174Z,32.90
2018-07-31T14:38:12.698Z,33.50
2018-07-31T14:40:41.196Z,33.90
2018-07-31T14:43:09.832Z,34.20
2018-07-31T14:45:38.339Z,34.20
2018-07-31T14:48:06.939Z,33.90
2018-07-31T14:50:35.578Z,33.50
2018-07-31T14:53:21.639Z,33.40
2018-07-31T14:55:50.150Z,33.20
2018-07-31T14:58:18.697Z,33.20
2018-07-31T15:00:47.257Z,32.80
2018-07-31T15:03:15.840Z,32.70
2018-07-31T15:05:44.364Z,32.60
2018-07-31T15:08:12.868Z,32.60
2018-07-31T15:10:42.215Z,32.70
2018-07-31T15:13:10.738Z,32.50
2018-07-31T15:15:39.533Z,32.60
2018-07-31T15:18:08.021Z,32.70
2018-07-31T15:20:36.490Z,32.80
2018-07-31T15:23:04.968Z,32.80
2018-07-31T15:25:33.430Z,32.70
2018-07-31T15:28:01.931Z,32.60
2018-07-31T15:30:30.450Z,32.40
2018-07-31T15:32:58.948Z,32.30
2018-07-31T15:35:27.500Z,32.50
2018-07-31T15:37:56.435Z,32.50
2018-07-31T15:40:24.985Z,32.30
2018-07-31T15:45:21.683Z,31.90
2018-07-31T15:47:50.197Z,31.80
2018-07-31T15:50:18.684Z,31.70
2018-07-31T15:52:47.171Z,31.80
2018-07-31T15:55:15.855Z,31.80
2018-07-31T15:57:44.335Z,31.50
2018-07-31T16:00:13.025Z,31.30
2018-07-31T16:02:41.495Z,31.20
2018-07-31T16:05:10.018Z,31.10
2018-07-31T16:07:38.508Z,31.10
2018-07-31T16:10:08.168Z,31.00
2018-07-31T16:12:36.694Z,31.00
2018-07-31T16:15:05.436Z,31.10
2018-07-31T16:17:33.920Z,31.00
2018-07-31T16:20:02.515Z,30.80
2018-07-31T16:22:30.989Z,30.50
2018-07-31T16:24:59.471Z,30.40
2018-07-31T16:27:27.935Z,30.10
2018-07-31T16:29:56.402Z,30.20
2018-07-31T16:32:24.890Z,30.30
2018-07-31T16:34:53.391Z,30.40
2018-07-31T16:37:21.863Z,30.50
2018-07-31T16:39:50.588Z,30.50
2018-07-31T16:42:19.012Z,30.50
2018-07-31T16:44:47.513Z,30.20
2018-07-31T16:47:15.994Z,29.90
2018-07-31T16:49:44.503Z,29.90
2018-07-31T16:52:33.612Z,29.80
2018-07-31T16:55:02.131Z,29.70
2018-07-31T16:57:30.611Z,29.70
2018-07-31T16:59:59.080Z,29.70
2018-07-31T17:02:27.571Z,29.70
2018-07-31T17:04:56.051Z,29.50
2018-07-31T17:07:24.548Z,29.40
2018-07-31T17:09:53.016Z,29.30
2018-07-31T17:12:21.482Z,29.40
2018-07-31T17:17:18.147Z,29.30
2018-07-31T17:19:46.652Z,29.30
2018-07-31T17:22:15.149Z,29.20
2018-07-31T17:24:43.691Z,29.20
2018-07-31T17:27:12.163Z,29.30
2018-07-31T17:29:40.631Z,29.20
2018-07-31T17:32:09.108Z,29.20
2018-07-31T17:34:37.596Z,29.20
2018-07-31T17:37:06.096Z,29.20
2018-07-31T17:39:34.610Z,29.20
2018-07-31T17:42:03.067Z,29.30
2018-07-31T17:44:31.544Z,29.20
2018-07-31T17:47:00.052Z,29.20
2018-07-31T17:49:28.531Z,29.10
2018-07-31T17:51:57.014Z,29.10
2018-07-31T17:54:25.491Z,29.10
2018-07-31T17:56:53.992Z,29.10
2018-07-31T17:59:22.460Z,29.20
2018-07-31T18:01:50.927Z,29.10
2018-07-31T18:04:19.419Z,29.00
2018-07-31T18:06:47.916Z,29.00
2018-07-31T18:09:16.371Z,28.90
2018-07-31T18:11:44.841Z,28.80
2018-07-31T18:14:13.370Z,28.70
2018-07-31T18:16:41.827Z,28.50
2018-07-31T18:19:10.312Z,28.30
2018-07-31T18:21:38.951Z,28.20
2018-07-31T18:24:07.863Z,28.20
2018-07-31T18:26:36.812Z,28.10
2018-07-31T18:29:05.344Z,27.90
2018-07-31T18:31:33.819Z,27.90
2018-07-31T18:34:02.297Z,27.90
2018-07-31T18:36:30.775Z,27.80
2018-07-31T18:38:59.263Z,27.60
2018-07-31T18:41:27.741Z,27.60
2018-07-31T18:43:56.379Z,27.50
2018-07-31T18:46:24.855Z,27.40
2018-07-31T18:48:53.379Z,27.20
2018-07-31T18:51:21.860Z,27.20
2018-07-31T18:53:50.326Z,27.10
2018-07-31T18:56:18.805Z,27.00
2018-07-31T18:58:47.287Z,27.00
2018-07-31T19:01:15.892Z,26.80
2018-07-31T19:03:44.343Z,26.70
2018-07-31T19:06:13.028Z,26.50
2018-07-31T19:08:41.546Z,26.30
2018-07-31T19:11:10.043Z,26.10
2018-07-31T19:13:38.560Z,25.90
2018-07-31T19:16:07.091Z,25.80
2018-07-31T19:18:35.589Z,25.60
2018-07-31T19:21:04.116Z,25.50
2018-07-31T19:23:44.639Z,25.40
2018-07-31T19:28:41.281Z,25.00
2018-07-31T19:31:15.579Z,24.90
2018-07-31T19:33:44.120Z,24.80
2018-07-31T19:36:13.621Z,24.60
2018-07-31T19:38:42.096Z,24.40
2018-07-31T19:41:10.558Z,24.30
2018-07-31T19:46:07.296Z,24.00
2018-07-31T19:48:35.815Z,23.80
2018-07-31T19:51:04.351Z,23.70
2018-07-31T19:53:32.825Z,23.60
2018-07-31T19:56:01.403Z,23.50
2018-07-31T19:58:29.909Z,23.30
2018-07-31T20:00:58.447Z,23.20
2018-07-31T20:03:26.927Z,23.10
2018-07-31T20:05:55.474Z,23.10
2018-07-31T20:08:23.998Z,23.00
2018-07-31T20:10:52.463Z,22.90
2018-07-31T20:13:20.960Z,22.80
2018-07-31T20:15:49.456Z,22.80
2018-07-31T20:18:17.947Z,22.70
2018-07-31T20:20:46.427Z,22.60
2018-07-31T20:23:14.915Z,22.50
2018-07-31T20:25:43.450Z,22.40
2018-07-31T20:28:11.918Z,22.30
2018-07-31T20:30:40.450Z,22.30
2018-07-31T20:33:08.928Z,22.20
2018-07-31T20:35:37.424Z,22.10
2018-07-31T20:38:05.931Z,22.00
2018-07-31T20:40:34.432Z,21.90
2018-07-31T20:43:02.934Z,21.90
2018-07-31T20:45:38.956Z,21.80
2018-07-31T20:48:07.487Z,21.60
2018-07-31T20:50:36.142Z,21.60
2018-07-31T20:53:04.623Z,21.50
2018-07-31T20:55:33.135Z,21.40
2018-07-31T20:58:21.612Z,21.30
2018-07-31T21:00:50.131Z,21.20
2018-07-31T21:03:20.033Z,21.20
2018-07-31T21:06:01.448Z,21.10
2018-07-31T21:08:31.738Z,21.10
2018-07-31T21:11:00.267Z,21.10
2018-07-31T21:13:29.954Z,21.10
2018-07-31T21:15:58.500Z,21.10
2018-07-31T21:18:27.275Z,20.90
2018-07-31T21:21:02.448Z,20.80
2018-07-31T21:23:30.927Z,20.70
2018-07-31T21:25:59.399Z,20.70
2018-07-31T21:28:28.024Z,20.60
2018-07-31T21:30:56.528Z,20.60
2018-07-31T21:33:25.020Z,20.50
2018-07-31T21:35:53.495Z,20.50
2018-07-31T21:38:21.966Z,20.50
2018-07-31T21:43:18.614Z,20.30
2018-07-31T21:45:47.124Z,20.20
2018-07-31T21:48:15.591Z,20.20
2018-07-31T21:50:44.062Z,20.10
2018-07-31T21:53:12.528Z,20.00
2018-07-31T21:55:41.050Z,19.90
2018-07-31T21:58:09.562Z,19.90
2018-07-31T22:00:43.492Z,19.80
2018-07-31T22:03:12.043Z,19.80
2018-07-31T22:05:40.558Z,19.80
2018-07-31T22:08:09.067Z,19.70
2018-07-31T22:10:37.588Z,19.60
2018-07-31T22:13:06.096Z,19.60
2018-07-31T22:18:02.764Z,19.50
2018-07-31T22:20:31.236Z,19.60
2018-07-31T22:22:59.719Z,19.60
2018-07-31T22:25:28.190Z,19.60
2018-07-31T22:27:56.691Z,19.50
2018-07-31T22:30:25.188Z,19.50
2018-07-31T22:32:53.667Z,19.50
2018-07-31T22:35:22.170Z,19.50
2018-07-31T22:37:51.058Z,19.50
2018-07-31T22:40:20.433Z,19.40
2018-07-31T22:42:50.926Z,19.30
2018-07-31T22:45:19.410Z,19.30
2018-07-31T22:47:47.912Z,19.30
2018-07-31T22:50:16.413Z,19.30
2018-07-31T22:52:45.388Z,19.30
2018-07-31T22:55:14.471Z,19.20
2018-07-31T22:57:43.487Z,19.30
2018-07-31T23:00:12.402Z,19.40
2018-07-31T23:02:41.985Z,19.50
2018-07-31T23:05:12.552Z,19.50
2018-07-31T23:07:41.632Z,19.60
2018-07-31T23:10:10.483Z,19.60
2018-07-31T23:12:39.397Z,19.70
2018-07-31T23:15:08.752Z,19.60
2018-07-31T23:17:37.534Z,19.60
2018-07-31T23:20:06.455Z,19.50
2018-07-31T23:22:44.447Z,19.50
2018-07-31T23:25:13.450Z,19.40
2018-07-31T23:27:42.362Z,19.20
2018-07-31T23:30:11.092Z,19.10
2018-07-31T23:32:40.167Z,19.00
2018-07-31T23:35:08.685Z,19.00
2018-07-31T23:40:06.288Z,18.90
2018-07-31T23:42:34.818Z,18.90
2018-07-31T23:45:03.364Z,18.70
2018-07-31T23:47:31.939Z,18.60
2018-07-31T23:50:01.241Z,18.70
2018-07-31T23:52:30.087Z,18.80
2018-07-31T23:54:58.622Z,18.80
2018-07-31T23:57:27.131Z,18.70
2018-07-31T23:59:55.625Z,18.60
